sensor_id;sensor_type;location;lat;lon;timestamp;temperature;humidity
20795;DHT22;28087;-33.874;151.240;2022-09-09T00:02:06;16.80;99.90
20795;DHT22;28087;-33.874;151.240;2022-09-09T00:04:48;16.70;99.90
20795;DHT22;28087;-33.874;151.240;2022-09-09T00:07:36;16.70;99.90
20795;DHT22;28087;-33.874;151.240;2022-09-09T00:10:19;16.70;99.90
20795;DHT22;28087;-33.874;151.240;2022-09-09T00:13:05;16.70;99.90
20795;DHT22;28087;-33.874;151.240;2022-09-09T00:15:50;16.70;99.90
20795;DHT22;28087;-33.874;151.240;2022-09-09T00:18:54;16.70;99.90
20795;DHT22;28087;-33.874;151.240;2022-09-09T00:21:35;16.80;99.90
20795;DHT22;28087;-33.874;151.240;2022-09-09T00:24:17;16.80;99.90
20795;DHT22;28087;-33.874;151.240;2022-09-09T00:26:59;16.90;99.90
20795;DHT22;28087;-33.874;151.240;2022-09-09T00:29:38;17.00;99.90
20795;DHT22;28087;-33.874;151.240;2022-09-09T00:32:20;16.90;99.90
20795;DHT22;28087;-33.874;151.240;2022-09-09T00:34:56;16.90;99.90
20795;DHT22;28087;-33.874;151.240;2022-09-09T00:37:34;16.90;99.90
20795;DHT22;28087;-33.874;151.240;2022-09-09T00:40:23;17.00;99.90
20795;DHT22;28087;-33.874;151.240;2022-09-09T00:43:16;17.00;99.90
20795;DHT22;28087;-33.874;151.240;2022-09-09T00:46:11;17.10;99.90
20795;DHT22;28087;-33.874;151.240;2022-09-09T00:49:00;17.10;99.90
20795;DHT22;28087;-33.874;151.240;2022-09-09T00:51:46;17.10;99.90
20795;DHT22;28087;-33.874;151.240;2022-09-09T00:54:32;17.10;99.90
20795;DHT22;28087;-33.874;151.240;2022-09-09T00:57:22;17.10;99.90
20795;DHT22;28087;-33.874;151.240;2022-09-09T01:00:16;17.10;99.90
20795;DHT22;28087;-33.874;151.240;2022-09-09T01:03:07;17.20;99.90
20795;DHT22;28087;-33.874;151.240;2022-09-09T01:05:53;17.10;99.90
20795;DHT22;28087;-33.874;151.240;2022-09-09T01:11:22;17.00;99.90
20795;DHT22;28087;-33.874;151.240;2022-09-09T01:16:58;17.10;99.90
20795;DHT22;28087;-33.874;151.240;2022-09-09T01:20:02;17.10;99.90
20795;DHT22;28087;-33.874;151.240;2022-09-09T01:23:06;17.10;99.90
20795;DHT22;28087;-33.874;151.240;2022-09-09T01:26:20;17.20;99.90
20795;DHT22;28087;-33.874;151.240;2022-09-09T01:29:00;17.20;99.90
20795;DHT22;28087;-33.874;151.240;2022-09-09T01:31:41;17.30;99.90
20795;DHT22;28087;-33.874;151.240;2022-09-09T01:34:17;17.40;99.90
20795;DHT22;28087;-33.874;151.240;2022-09-09T01:36:57;17.50;99.90
20795;DHT22;28087;-33.874;151.240;2022-09-09T01:39:33;17.50;99.90
20795;DHT22;28087;-33.874;151.240;2022-09-09T01:42:16;17.60;99.90
20795;DHT22;28087;-33.874;151.240;2022-09-09T01:44:52;17.60;99.90
20795;DHT22;28087;-33.874;151.240;2022-09-09T01:47:28;17.60;99.90
20795;DHT22;28087;-33.874;151.240;2022-09-09T01:53:56;17.60;99.90
20795;DHT22;28087;-33.874;151.240;2022-09-09T01:56:56;17.60;99.90
20795;DHT22;28087;-33.874;151.240;2022-09-09T02:00:03;17.60;99.90
20795;DHT22;28087;-33.874;151.240;2022-09-09T02:03:05;17.80;99.90
20795;DHT22;28087;-33.874;151.240;2022-09-09T02:06:16;17.90;99.90
20795;DHT22;28087;-33.874;151.240;2022-09-09T02:09:03;18.00;99.90
20795;DHT22;28087;-33.874;151.240;2022-09-09T02:11:39;18.20;99.90
20795;DHT22;28087;-33.874;151.240;2022-09-09T02:14:27;18.30;99.90
20795;DHT22;28087;-33.874;151.240;2022-09-09T02:17:10;18.40;99.90
20795;DHT22;28087;-33.874;151.240;2022-09-09T02:20:03;18.40;99.90
20795;DHT22;28087;-33.874;151.240;2022-09-09T02:23:09;18.60;99.90
20795;DHT22;28087;-33.874;151.240;2022-09-09T02:25:48;18.80;99.90
20795;DHT22;28087;-33.874;151.240;2022-09-09T02:28:29;18.90;99.90
20795;DHT22;28087;-33.874;151.240;2022-09-09T02:31:06;19.10;99.90
20795;DHT22;28087;-33.874;151.240;2022-09-09T02:33:48;19.20;99.90
20795;DHT22;28087;-33.874;151.240;2022-09-09T02:36:28;19.20;99.90
20795;DHT22;28087;-33.874;151.240;2022-09-09T02:39:07;19.20;99.90
20795;DHT22;28087;-33.874;151.240;2022-09-09T02:41:43;19.00;99.90
20795;DHT22;28087;-33.874;151.240;2022-09-09T02:44:20;18.90;99.90
20795;DHT22;28087;-33.874;151.240;2022-09-09T02:47:12;18.90;99.90
20795;DHT22;28087;-33.874;151.240;2022-09-09T02:49:59;18.80;99.90
20795;DHT22;28087;-33.874;151.240;2022-09-09T02:52:45;18.80;99.90
20795;DHT22;28087;-33.874;151.240;2022-09-09T02:55:27;18.70;99.90
20795;DHT22;28087;-33.874;151.240;2022-09-09T02:58:07;18.70;99.90
20795;DHT22;28087;-33.874;151.240;2022-09-09T03:00:45;18.60;99.90
20795;DHT22;28087;-33.874;151.240;2022-09-09T03:03:21;18.60;99.90
20795;DHT22;28087;-33.874;151.240;2022-09-09T03:06:03;18.50;99.90
20795;DHT22;28087;-33.874;151.240;2022-09-09T03:08:40;18.50;99.90
20795;DHT22;28087;-33.874;151.240;2022-09-09T03:11:27;18.80;99.90
20795;DHT22;28087;-33.874;151.240;2022-09-09T03:14:03;18.60;99.90
20795;DHT22;28087;-33.874;151.240;2022-09-09T03:19:14;18.50;99.90
20795;DHT22;28087;-33.874;151.240;2022-09-09T03:21:53;18.40;99.90
20795;DHT22;28087;-33.874;151.240;2022-09-09T03:24:33;18.40;99.90
20795;DHT22;28087;-33.874;151.240;2022-09-09T03:27:08;18.50;99.90
20795;DHT22;28087;-33.874;151.240;2022-09-09T03:29:44;18.40;99.90
20795;DHT22;28087;-33.874;151.240;2022-09-09T03:32:23;18.30;99.90
20795;DHT22;28087;-33.874;151.240;2022-09-09T03:34:59;18.40;99.90
20795;DHT22;28087;-33.874;151.240;2022-09-09T03:37:37;18.30;99.90
20795;DHT22;28087;-33.874;151.240;2022-09-09T03:40:15;18.20;99.90
20795;DHT22;28087;-33.874;151.240;2022-09-09T03:42:52;18.20;99.90
20795;DHT22;28087;-33.874;151.240;2022-09-09T03:45:33;18.10;99.90
20795;DHT22;28087;-33.874;151.240;2022-09-09T03:48:09;18.20;99.90
20795;DHT22;28087;-33.874;151.240;2022-09-09T03:50:48;18.20;99.90
20795;DHT22;28087;-33.874;151.240;2022-09-09T03:53:27;18.30;99.90
20795;DHT22;28087;-33.874;151.240;2022-09-09T03:56:06;18.30;99.90
20795;DHT22;28087;-33.874;151.240;2022-09-09T03:58:41;18.40;99.90
20795;DHT22;28087;-33.874;151.240;2022-09-09T04:01:17;18.30;99.90
20795;DHT22;28087;-33.874;151.240;2022-09-09T04:03:53;18.50;99.90
20795;DHT22;28087;-33.874;151.240;2022-09-09T04:06:30;18.60;99.90
20795;DHT22;28087;-33.874;151.240;2022-09-09T04:09:08;18.90;99.90
20795;DHT22;28087;-33.874;151.240;2022-09-09T04:11:46;19.10;99.90
20795;DHT22;28087;-33.874;151.240;2022-09-09T04:19:40;19.30;99.90
20795;DHT22;28087;-33.874;151.240;2022-09-09T04:45:49;19.30;99.90
20795;DHT22;28087;-33.874;151.240;2022-09-09T04:48:27;19.30;99.90
20795;DHT22;28087;-33.874;151.240;2022-09-09T05:04:24;19.10;99.90
20795;DHT22;28087;-33.874;151.240;2022-09-09T05:07:01;19.10;99.90
20795;DHT22;28087;-33.874;151.240;2022-09-09T05:09:37;19.10;99.90
20795;DHT22;28087;-33.874;151.240;2022-09-09T05:12:17;19.10;99.90
20795;DHT22;28087;-33.874;151.240;2022-09-09T05:14:54;19.00;99.90
20795;DHT22;28087;-33.874;151.240;2022-09-09T05:17:29;18.90;99.90
20795;DHT22;28087;-33.874;151.240;2022-09-09T05:22:47;18.90;99.90
20795;DHT22;28087;-33.874;151.240;2022-09-09T06:09:50;18.70;99.90
20795;DHT22;28087;-33.874;151.240;2022-09-09T06:12:26;18.80;99.90
20795;DHT22;28087;-33.874;151.240;2022-09-09T06:15:04;18.70;99.90
20795;DHT22;28087;-33.874;151.240;2022-09-09T06:17:41;18.60;99.90
20795;DHT22;28087;-33.874;151.240;2022-09-09T06:20:18;18.70;99.90
20795;DHT22;28087;-33.874;151.240;2022-09-09T06:22:54;18.70;99.90
20795;DHT22;28087;-33.874;151.240;2022-09-09T06:25:48;18.60;99.90
20795;DHT22;28087;-33.874;151.240;2022-09-09T06:28:24;18.60;99.90
20795;DHT22;28087;-33.874;151.240;2022-09-09T06:31:10;18.60;99.90
20795;DHT22;28087;-33.874;151.240;2022-09-09T06:34:49;18.60;99.90
20795;DHT22;28087;-33.874;151.240;2022-09-09T06:37:25;18.60;99.90
20795;DHT22;28087;-33.874;151.240;2022-09-09T06:40:01;18.60;99.90
20795;DHT22;28087;-33.874;151.240;2022-09-09T06:42:37;18.60;99.90
20795;DHT22;28087;-33.874;151.240;2022-09-09T06:45:35;18.60;99.90
20795;DHT22;28087;-33.874;151.240;2022-09-09T06:48:13;18.60;99.90
20795;DHT22;28087;-33.874;151.240;2022-09-09T06:50:49;18.60;99.90
20795;DHT22;28087;-33.874;151.240;2022-09-09T06:53:25;18.60;99.90
20795;DHT22;28087;-33.874;151.240;2022-09-09T06:56:01;18.50;99.90
20795;DHT22;28087;-33.874;151.240;2022-09-09T06:58:40;18.50;99.90
20795;DHT22;28087;-33.874;151.240;2022-09-09T07:01:27;18.50;99.90
20795;DHT22;28087;-33.874;151.240;2022-09-09T07:04:07;18.50;99.90
20795;DHT22;28087;-33.874;151.240;2022-09-09T07:06:46;18.60;99.90
20795;DHT22;28087;-33.874;151.240;2022-09-09T07:09:26;18.60;99.90
20795;DHT22;28087;-33.874;151.240;2022-09-09T07:12:02;18.60;99.90
20795;DHT22;28087;-33.874;151.240;2022-09-09T07:14:41;18.50;99.90
20795;DHT22;28087;-33.874;151.240;2022-09-09T07:17:17;18.50;99.90
20795;DHT22;28087;-33.874;151.240;2022-09-09T07:19:54;18.60;99.90
20795;DHT22;28087;-33.874;151.240;2022-09-09T07:22:33;18.50;99.90
20795;DHT22;28087;-33.874;151.240;2022-09-09T07:25:09;18.50;99.90
20795;DHT22;28087;-33.874;151.240;2022-09-09T07:28:04;18.50;99.90
20795;DHT22;28087;-33.874;151.240;2022-09-09T07:30:42;18.50;99.90
20795;DHT22;28087;-33.874;151.240;2022-09-09T07:33:18;18.40;99.90
20795;DHT22;28087;-33.874;151.240;2022-09-09T07:36:04;18.40;99.90
20795;DHT22;28087;-33.874;151.240;2022-09-09T07:38:42;18.50;99.90
20795;DHT22;28087;-33.874;151.240;2022-09-09T07:41:20;18.40;99.90
20795;DHT22;28087;-33.874;151.240;2022-09-09T07:43:57;18.40;99.90
20795;DHT22;28087;-33.874;151.240;2022-09-09T07:46:32;18.40;99.90
20795;DHT22;28087;-33.874;151.240;2022-09-09T07:49:10;18.40;99.90
20795;DHT22;28087;-33.874;151.240;2022-09-09T07:51:49;18.30;99.90
20795;DHT22;28087;-33.874;151.240;2022-09-09T07:54:25;18.30;99.90
20795;DHT22;28087;-33.874;151.240;2022-09-09T07:57:05;18.30;99.90
20795;DHT22;28087;-33.874;151.240;2022-09-09T07:59:41;18.20;99.90
20795;DHT22;28087;-33.874;151.240;2022-09-09T08:02:17;18.30;99.90
20795;DHT22;28087;-33.874;151.240;2022-09-09T08:04:52;18.30;99.90
20795;DHT22;28087;-33.874;151.240;2022-09-09T08:07:30;18.30;99.90
20795;DHT22;28087;-33.874;151.240;2022-09-09T08:10:06;18.20;99.90
20795;DHT22;28087;-33.874;151.240;2022-09-09T08:12:43;18.30;99.90
20795;DHT22;28087;-33.874;151.240;2022-09-09T08:15:39;18.20;99.90
20795;DHT22;28087;-33.874;151.240;2022-09-09T08:18:16;18.30;99.90
20795;DHT22;28087;-33.874;151.240;2022-09-09T08:20:51;18.20;99.90
20795;DHT22;28087;-33.874;151.240;2022-09-09T08:23:29;18.20;99.90
20795;DHT22;28087;-33.874;151.240;2022-09-09T08:26:08;18.10;99.90
20795;DHT22;28087;-33.874;151.240;2022-09-09T08:28:44;18.10;99.90
20795;DHT22;28087;-33.874;151.240;2022-09-09T08:31:21;18.10;99.90
20795;DHT22;28087;-33.874;151.240;2022-09-09T08:33:58;18.10;99.90
20795;DHT22;28087;-33.874;151.240;2022-09-09T08:36:36;18.10;99.90
20795;DHT22;28087;-33.874;151.240;2022-09-09T08:39:15;18.10;99.90
20795;DHT22;28087;-33.874;151.240;2022-09-09T08:42:20;18.00;99.90
20795;DHT22;28087;-33.874;151.240;2022-09-09T08:45:25;17.90;99.90
20795;DHT22;28087;-33.874;151.240;2022-09-09T08:48:17;17.90;99.90
20795;DHT22;28087;-33.874;151.240;2022-09-09T08:50:59;17.80;99.90
20795;DHT22;28087;-33.874;151.240;2022-09-09T08:53:41;17.80;99.90
20795;DHT22;28087;-33.874;151.240;2022-09-09T08:56:21;17.80;99.90
20795;DHT22;28087;-33.874;151.240;2022-09-09T08:59:01;17.80;99.90
20795;DHT22;28087;-33.874;151.240;2022-09-09T09:01:50;17.80;99.90
20795;DHT22;28087;-33.874;151.240;2022-09-09T09:05:00;17.70;99.90
20795;DHT22;28087;-33.874;151.240;2022-09-09T09:07:54;17.70;99.90
20795;DHT22;28087;-33.874;151.240;2022-09-09T09:10:43;17.70;99.90
20795;DHT22;28087;-33.874;151.240;2022-09-09T09:13:31;17.60;99.90
20795;DHT22;28087;-33.874;151.240;2022-09-09T09:16:23;17.60;99.90
20795;DHT22;28087;-33.874;151.240;2022-09-09T09:19:01;17.60;99.90
20795;DHT22;28087;-33.874;151.240;2022-09-09T09:21:42;17.60;99.90
20795;DHT22;28087;-33.874;151.240;2022-09-09T09:24:21;17.50;99.90
20795;DHT22;28087;-33.874;151.240;2022-09-09T09:27:07;17.50;99.90
20795;DHT22;28087;-33.874;151.240;2022-09-09T09:29:55;17.50;99.90
20795;DHT22;28087;-33.874;151.240;2022-09-09T09:32:55;17.50;99.90
20795;DHT22;28087;-33.874;151.240;2022-09-09T09:35:31;17.40;99.90
20795;DHT22;28087;-33.874;151.240;2022-09-09T09:38:17;17.40;99.90
20795;DHT22;28087;-33.874;151.240;2022-09-09T09:41:15;17.40;99.90
20795;DHT22;28087;-33.874;151.240;2022-09-09T09:43:54;17.40;99.90
20795;DHT22;28087;-33.874;151.240;2022-09-09T09:46:33;17.40;99.90
20795;DHT22;28087;-33.874;151.240;2022-09-09T09:49:13;17.40;99.90
20795;DHT22;28087;-33.874;151.240;2022-09-09T09:51:49;17.30;99.90
20795;DHT22;28087;-33.874;151.240;2022-09-09T09:54:28;17.30;99.90
20795;DHT22;28087;-33.874;151.240;2022-09-09T09:57:12;17.30;99.90
20795;DHT22;28087;-33.874;151.240;2022-09-09T09:59:59;17.30;99.90
20795;DHT22;28087;-33.874;151.240;2022-09-09T10:02:46;17.30;99.90
20795;DHT22;28087;-33.874;151.240;2022-09-09T10:05:28;17.30;99.90
20795;DHT22;28087;-33.874;151.240;2022-09-09T10:08:13;17.20;99.90
20795;DHT22;28087;-33.874;151.240;2022-09-09T10:10:57;17.20;99.90
20795;DHT22;28087;-33.874;151.240;2022-09-09T10:13:43;17.20;99.90
20795;DHT22;28087;-33.874;151.240;2022-09-09T10:16:30;17.20;99.90
20795;DHT22;28087;-33.874;151.240;2022-09-09T10:19:15;17.20;99.90
20795;DHT22;28087;-33.874;151.240;2022-09-09T10:22:04;17.20;99.90
20795;DHT22;28087;-33.874;151.240;2022-09-09T10:25:07;17.30;99.90
20795;DHT22;28087;-33.874;151.240;2022-09-09T10:28:00;17.20;99.90
20795;DHT22;28087;-33.874;151.240;2022-09-09T10:30:48;17.20;99.90
20795;DHT22;28087;-33.874;151.240;2022-09-09T10:33:35;17.20;99.90
20795;DHT22;28087;-33.874;151.240;2022-09-09T10:36:16;17.20;99.90
20795;DHT22;28087;-33.874;151.240;2022-09-09T10:38:57;17.20;99.90
20795;DHT22;28087;-33.874;151.240;2022-09-09T10:41:44;17.10;99.90
20795;DHT22;28087;-33.874;151.240;2022-09-09T10:44:33;17.10;99.90
20795;DHT22;28087;-33.874;151.240;2022-09-09T10:47:30;17.10;99.90
20795;DHT22;28087;-33.874;151.240;2022-09-09T10:50:32;17.10;99.90
20795;DHT22;28087;-33.874;151.240;2022-09-09T10:53:40;17.10;99.90
20795;DHT22;28087;-33.874;151.240;2022-09-09T10:56:21;17.10;99.90
20795;DHT22;28087;-33.874;151.240;2022-09-09T10:59:02;17.10;99.90
20795;DHT22;28087;-33.874;151.240;2022-09-09T11:01:43;17.20;99.90
20795;DHT22;28087;-33.874;151.240;2022-09-09T11:04:23;17.10;99.90
20795;DHT22;28087;-33.874;151.240;2022-09-09T11:07:02;17.20;99.90
20795;DHT22;28087;-33.874;151.240;2022-09-09T11:09:47;17.20;99.90
20795;DHT22;28087;-33.874;151.240;2022-09-09T11:12:26;17.20;99.90
20795;DHT22;28087;-33.874;151.240;2022-09-09T11:15:08;17.20;99.90
20795;DHT22;28087;-33.874;151.240;2022-09-09T11:17:54;17.20;99.90
20795;DHT22;28087;-33.874;151.240;2022-09-09T11:20:38;17.10;99.90
20795;DHT22;28087;-33.874;151.240;2022-09-09T11:23:17;17.20;99.90
20795;DHT22;28087;-33.874;151.240;2022-09-09T11:26:00;17.20;99.90
20795;DHT22;28087;-33.874;151.240;2022-09-09T11:28:51;17.10;99.90
20795;DHT22;28087;-33.874;151.240;2022-09-09T11:31:44;17.20;99.90
20795;DHT22;28087;-33.874;151.240;2022-09-09T11:34:30;17.20;99.90
20795;DHT22;28087;-33.874;151.240;2022-09-09T11:40:23;17.20;99.90
20795;DHT22;28087;-33.874;151.240;2022-09-09T11:43:11;17.20;99.90
20795;DHT22;28087;-33.874;151.240;2022-09-09T11:45:52;17.20;99.90
20795;DHT22;28087;-33.874;151.240;2022-09-09T11:48:33;17.20;99.90
20795;DHT22;28087;-33.874;151.240;2022-09-09T11:51:10;17.20;99.90
20795;DHT22;28087;-33.874;151.240;2022-09-09T11:53:51;17.20;99.90
20795;DHT22;28087;-33.874;151.240;2022-09-09T11:56:28;17.20;99.90
20795;DHT22;28087;-33.874;151.240;2022-09-09T11:59:19;17.20;99.90
20795;DHT22;28087;-33.874;151.240;2022-09-09T12:01:57;17.30;99.90
20795;DHT22;28087;-33.874;151.240;2022-09-09T12:04:38;17.30;99.90
20795;DHT22;28087;-33.874;151.240;2022-09-09T12:07:30;17.30;99.90
20795;DHT22;28087;-33.874;151.240;2022-09-09T12:10:22;17.30;99.90
20795;DHT22;28087;-33.874;151.240;2022-09-09T12:13:15;17.30;99.90
20795;DHT22;28087;-33.874;151.240;2022-09-09T12:15:54;17.30;99.90
20795;DHT22;28087;-33.874;151.240;2022-09-09T12:18:34;17.30;99.90
20795;DHT22;28087;-33.874;151.240;2022-09-09T12:21:21;17.30;99.90
20795;DHT22;28087;-33.874;151.240;2022-09-09T12:24:02;17.30;99.90
20795;DHT22;28087;-33.874;151.240;2022-09-09T12:26:43;17.40;99.90
20795;DHT22;28087;-33.874;151.240;2022-09-09T12:29:27;17.30;99.90
20795;DHT22;28087;-33.874;151.240;2022-09-09T12:32:08;17.40;99.90
20795;DHT22;28087;-33.874;151.240;2022-09-09T12:35:09;17.30;99.90
20795;DHT22;28087;-33.874;151.240;2022-09-09T12:37:50;17.30;99.90
20795;DHT22;28087;-33.874;151.240;2022-09-09T12:40:29;17.30;99.90
20795;DHT22;28087;-33.874;151.240;2022-09-09T12:43:18;17.30;99.90
20795;DHT22;28087;-33.874;151.240;2022-09-09T12:45:57;17.20;99.90
20795;DHT22;28087;-33.874;151.240;2022-09-09T12:48:39;17.20;99.90
20795;DHT22;28087;-33.874;151.240;2022-09-09T12:51:21;17.20;99.90
20795;DHT22;28087;-33.874;151.240;2022-09-09T12:54:01;17.30;99.90
20795;DHT22;28087;-33.874;151.240;2022-09-09T12:56:37;17.30;99.90
20795;DHT22;28087;-33.874;151.240;2022-09-09T12:59:23;17.30;99.90
20795;DHT22;28087;-33.874;151.240;2022-09-09T13:01:59;17.30;99.90
20795;DHT22;28087;-33.874;151.240;2022-09-09T13:04:37;17.30;99.90
20795;DHT22;28087;-33.874;151.240;2022-09-09T13:07:12;17.20;99.90
20795;DHT22;28087;-33.874;151.240;2022-09-09T13:09:49;17.20;99.90
20795;DHT22;28087;-33.874;151.240;2022-09-09T13:12:25;17.20;99.90
20795;DHT22;28087;-33.874;151.240;2022-09-09T13:15:01;17.20;99.90
20795;DHT22;28087;-33.874;151.240;2022-09-09T13:17:36;17.20;99.90
20795;DHT22;28087;-33.874;151.240;2022-09-09T13:20:20;17.20;99.90
20795;DHT22;28087;-33.874;151.240;2022-09-09T13:22:57;17.30;99.90
20795;DHT22;28087;-33.874;151.240;2022-09-09T13:25:33;17.30;99.90
20795;DHT22;28087;-33.874;151.240;2022-09-09T13:28:23;17.30;99.90
20795;DHT22;28087;-33.874;151.240;2022-09-09T13:31:05;17.30;99.90
20795;DHT22;28087;-33.874;151.240;2022-09-09T13:33:41;17.30;99.90
20795;DHT22;28087;-33.874;151.240;2022-09-09T13:36:38;17.30;99.90
20795;DHT22;28087;-33.874;151.240;2022-09-09T13:39:16;17.30;99.90
20795;DHT22;28087;-33.874;151.240;2022-09-09T13:41:52;17.30;99.90
20795;DHT22;28087;-33.874;151.240;2022-09-09T13:44:30;17.30;99.90
20795;DHT22;28087;-33.874;151.240;2022-09-09T13:47:17;17.40;99.90
20795;DHT22;28087;-33.874;151.240;2022-09-09T13:49:53;17.30;99.90
20795;DHT22;28087;-33.874;151.240;2022-09-09T13:52:31;17.30;99.90
20795;DHT22;28087;-33.874;151.240;2022-09-09T13:55:08;17.30;99.90
20795;DHT22;28087;-33.874;151.240;2022-09-09T13:57:52;17.30;99.90
20795;DHT22;28087;-33.874;151.240;2022-09-09T14:00:30;17.30;99.90
20795;DHT22;28087;-33.874;151.240;2022-09-09T14:03:06;17.30;99.90
20795;DHT22;28087;-33.874;151.240;2022-09-09T14:05:42;17.20;99.90
20795;DHT22;28087;-33.874;151.240;2022-09-09T14:08:25;17.30;99.90
20795;DHT22;28087;-33.874;151.240;2022-09-09T14:11:12;17.30;99.90
20795;DHT22;28087;-33.874;151.240;2022-09-09T14:13:48;17.30;99.90
20795;DHT22;28087;-33.874;151.240;2022-09-09T14:16:24;17.20;99.90
20795;DHT22;28087;-33.874;151.240;2022-09-09T14:19:00;17.20;99.90
20795;DHT22;28087;-33.874;151.240;2022-09-09T14:21:36;17.20;99.90
20795;DHT22;28087;-33.874;151.240;2022-09-09T14:24:13;17.20;99.90
20795;DHT22;28087;-33.874;151.240;2022-09-09T14:26:49;17.20;99.90
20795;DHT22;28087;-33.874;151.240;2022-09-09T14:29:25;17.30;99.90
20795;DHT22;28087;-33.874;151.240;2022-09-09T14:32:00;17.20;99.90
20795;DHT22;28087;-33.874;151.240;2022-09-09T14:34:41;17.10;99.90
20795;DHT22;28087;-33.874;151.240;2022-09-09T14:37:35;17.10;99.90
20795;DHT22;28087;-33.874;151.240;2022-09-09T14:40:14;17.10;99.90
20795;DHT22;28087;-33.874;151.240;2022-09-09T14:42:52;17.10;99.90
20795;DHT22;28087;-33.874;151.240;2022-09-09T14:45:29;17.10;99.90
20795;DHT22;28087;-33.874;151.240;2022-09-09T14:48:05;17.10;99.90
20795;DHT22;28087;-33.874;151.240;2022-09-09T14:50:41;17.10;99.90
20795;DHT22;28087;-33.874;151.240;2022-09-09T14:53:18;17.10;99.90
20795;DHT22;28087;-33.874;151.240;2022-09-09T14:56:04;17.10;99.90
20795;DHT22;28087;-33.874;151.240;2022-09-09T14:58:40;17.10;99.90
20795;DHT22;28087;-33.874;151.240;2022-09-09T15:01:17;17.10;99.90
20795;DHT22;28087;-33.874;151.240;2022-09-09T15:03:54;17.00;99.90
20795;DHT22;28087;-33.874;151.240;2022-09-09T15:06:31;17.10;99.90
20795;DHT22;28087;-33.874;151.240;2022-09-09T15:09:08;17.00;99.90
20795;DHT22;28087;-33.874;151.240;2022-09-09T15:11:46;17.10;99.90
20795;DHT22;28087;-33.874;151.240;2022-09-09T15:14:22;17.10;99.90
20795;DHT22;28087;-33.874;151.240;2022-09-09T15:19:38;17.10;99.90
20795;DHT22;28087;-33.874;151.240;2022-09-09T15:22:14;17.00;99.90
20795;DHT22;28087;-33.874;151.240;2022-09-09T15:24:50;17.00;99.90
20795;DHT22;28087;-33.874;151.240;2022-09-09T15:27:27;17.00;99.90
20795;DHT22;28087;-33.874;151.240;2022-09-09T15:30:04;17.10;99.90
20795;DHT22;28087;-33.874;151.240;2022-09-09T15:32:42;17.10;99.90
20795;DHT22;28087;-33.874;151.240;2022-09-09T15:35:18;17.10;99.90
20795;DHT22;28087;-33.874;151.240;2022-09-09T15:38:12;17.00;99.90
20795;DHT22;28087;-33.874;151.240;2022-09-09T15:40:54;17.10;99.90
20795;DHT22;28087;-33.874;151.240;2022-09-09T15:43:36;17.00;99.90
20795;DHT22;28087;-33.874;151.240;2022-09-09T15:46:28;17.00;99.90
20795;DHT22;28087;-33.874;151.240;2022-09-09T15:49:22;17.00;99.90
20795;DHT22;28087;-33.874;151.240;2022-09-09T15:52:00;16.70;99.90
20795;DHT22;28087;-33.874;151.240;2022-09-09T15:54:37;16.90;99.90
20795;DHT22;28087;-33.874;151.240;2022-09-09T15:57:16;16.60;99.90
20795;DHT22;28087;-33.874;151.240;2022-09-09T15:59:53;16.80;99.90
20795;DHT22;28087;-33.874;151.240;2022-09-09T16:02:28;16.80;99.90
20795;DHT22;28087;-33.874;151.240;2022-09-09T16:05:05;16.80;99.90
20795;DHT22;28087;-33.874;151.240;2022-09-09T16:07:41;16.80;99.90
20795;DHT22;28087;-33.874;151.240;2022-09-09T16:10:17;16.80;99.90
20795;DHT22;28087;-33.874;151.240;2022-09-09T16:12:52;16.80;99.90
20795;DHT22;28087;-33.874;151.240;2022-09-09T16:15:30;16.70;99.90
20795;DHT22;28087;-33.874;151.240;2022-09-09T16:18:06;16.60;99.90
20795;DHT22;28087;-33.874;151.240;2022-09-09T16:20:41;16.60;99.90
20795;DHT22;28087;-33.874;151.240;2022-09-09T16:23:17;16.50;99.90
20795;DHT22;28087;-33.874;151.240;2022-09-09T16:25:56;16.60;99.90
20795;DHT22;28087;-33.874;151.240;2022-09-09T16:28:49;16.60;99.90
20795;DHT22;28087;-33.874;151.240;2022-09-09T16:31:29;16.60;99.90
20795;DHT22;28087;-33.874;151.240;2022-09-09T16:34:05;16.60;99.90
20795;DHT22;28087;-33.874;151.240;2022-09-09T16:36:41;16.60;99.90
20795;DHT22;28087;-33.874;151.240;2022-09-09T16:39:21;16.50;99.90
20795;DHT22;28087;-33.874;151.240;2022-09-09T16:41:56;16.50;99.90
20795;DHT22;28087;-33.874;151.240;2022-09-09T16:44:32;16.50;99.90
20795;DHT22;28087;-33.874;151.240;2022-09-09T16:47:09;16.50;99.90
20795;DHT22;28087;-33.874;151.240;2022-09-09T16:49:45;16.50;99.90
20795;DHT22;28087;-33.874;151.240;2022-09-09T16:52:21;16.50;99.90
20795;DHT22;28087;-33.874;151.240;2022-09-09T16:54:57;16.50;99.90
20795;DHT22;28087;-33.874;151.240;2022-09-09T16:57:32;16.50;99.90
20795;DHT22;28087;-33.874;151.240;2022-09-09T17:00:09;16.50;99.90
20795;DHT22;28087;-33.874;151.240;2022-09-09T17:02:47;16.50;99.90
20795;DHT22;28087;-33.874;151.240;2022-09-09T17:05:22;16.50;99.90
20795;DHT22;28087;-33.874;151.240;2022-09-09T17:07:58;16.50;99.90
20795;DHT22;28087;-33.874;151.240;2022-09-09T17:10:34;16.50;99.90
20795;DHT22;28087;-33.874;151.240;2022-09-09T17:13:15;16.50;99.90
20795;DHT22;28087;-33.874;151.240;2022-09-09T17:15:52;16.40;99.90
20795;DHT22;28087;-33.874;151.240;2022-09-09T17:18:34;16.50;99.90
20795;DHT22;28087;-33.874;151.240;2022-09-09T17:21:11;16.50;99.90
20795;DHT22;28087;-33.874;151.240;2022-09-09T17:23:47;16.40;99.90
20795;DHT22;28087;-33.874;151.240;2022-09-09T17:26:24;16.50;99.90
20795;DHT22;28087;-33.874;151.240;2022-09-09T17:29:01;16.50;99.90
20795;DHT22;28087;-33.874;151.240;2022-09-09T17:31:38;16.50;99.90
20795;DHT22;28087;-33.874;151.240;2022-09-09T17:34:15;16.50;99.90
20795;DHT22;28087;-33.874;151.240;2022-09-09T17:36:51;16.50;99.90
20795;DHT22;28087;-33.874;151.240;2022-09-09T17:39:45;16.50;99.90
20795;DHT22;28087;-33.874;151.240;2022-09-09T17:42:22;16.50;99.90
20795;DHT22;28087;-33.874;151.240;2022-09-09T17:44:58;16.50;99.90
20795;DHT22;28087;-33.874;151.240;2022-09-09T17:47:34;16.50;99.90
20795;DHT22;28087;-33.874;151.240;2022-09-09T17:50:11;16.40;99.90
20795;DHT22;28087;-33.874;151.240;2022-09-09T17:52:47;16.50;99.90
20795;DHT22;28087;-33.874;151.240;2022-09-09T17:55:34;16.40;99.90
20795;DHT22;28087;-33.874;151.240;2022-09-09T17:58:10;16.40;99.90
20795;DHT22;28087;-33.874;151.240;2022-09-09T18:00:45;16.40;99.90
20795;DHT22;28087;-33.874;151.240;2022-09-09T18:03:22;16.40;99.90